Time,TemperatureF,DewpointF,PressureIn,WindDirection,WindDirectionDegrees,WindSpeedMPH,WindSpeedGustMPH,Humidity,HourlyPrecipIn,Conditions,Clouds,dailyrainin,SoftwareType,DateUTC
2013-10-07 00:00:00,67.8,58.4,29.81,North,0,2.0,10.0,72,0.00,,,-99.99,WeatherLink 5.6,2013-10-07 05:00:00,
2013-10-07 00:30:00,67.6,57.9,29.80,North,0,2.0,13.0,71,0.00,,,-99.99,WeatherLink 5.6,2013-10-07 05:30:00,
2013-10-07 01:00:00,67.4,56.9,29.81,NNE,22,2.0,10.0,69,0.00,,,-99.99,WeatherLink 5.6,2013-10-07 06:00:00,
2013-10-07 01:30:00,67.1,56.6,29.81,North,0,2.0,16.0,69,0.00,,,-99.99,WeatherLink 5.6,2013-10-07 06:30:00,
2013-10-07 02:00:00,66.8,55.9,29.80,North,0,2.0,13.0,68,0.00,,,-99.99,WeatherLink 5.6,2013-10-07 07:00:00,
2013-10-07 02:30:00,66.3,55.4,29.80,NNW,337,1.0,10.0,68,0.00,,,-99.99,WeatherLink 5.6,2013-10-07 07:30:00,
2013-10-07 03:00:00,66.1,54.4,29.80,North,0,2.0,13.0,66,0.00,,,-99.99,WeatherLink 5.6,2013-10-07 08:00:00,
2013-10-07 03:30:00,65.6,53.5,29.78,NNE,22,3.0,15.0,65,0.00,,,-99.99,WeatherLink 5.6,2013-10-07 08:30:00,
2013-10-07 04:00:00,65.0,53.4,29.79,NNE,22,2.0,11.0,66,0.00,,,-99.99,WeatherLink 5.6,2013-10-07 09:00:00,
2013-10-07 04:30:00,64.5,53.7,29.80,North,0,2.0,11.0,68,0.00,,,-99.99,WeatherLink 5.6,2013-10-07 09:30:00,
2013-10-07 05:00:00,63.5,53.1,29.80,NNE,22,1.0,9.0,69,0.00,,,-99.99,WeatherLink 5.6,2013-10-07 10:00:00,
2013-10-07 05:30:00,63.1,52.8,29.80,North,0,2.0,13.0,69,0.00,,,-99.99,WeatherLink 5.6,2013-10-07 10:30:00,
2013-10-07 06:00:00,62.4,52.5,29.81,NNW,337,2.0,12.0,70,0.00,,,-99.99,WeatherLink 5.6,2013-10-07 11:00:00,
2013-10-07 06:30:00,61.6,52.5,29.83,North,0,1.0,12.0,72,0.00,,,-99.99,WeatherLink 5.6,2013-10-07 11:30:00,
2013-10-07 07:00:00,60.9,52.6,29.83,NNW,337,1.0,10.0,74,0.00,,,-99.99,WeatherLink 5.6,2013-10-07 12:00:00,
2013-10-07 07:30:00,60.2,52.6,29.84,North,0,1.0,12.0,76,0.00,,,-99.99,WeatherLink 5.6,2013-10-07 12:30:00,
2013-10-07 08:00:00,60.9,53.6,29.86,NNW,337,1.0,10.0,77,0.00,,,-99.99,WeatherLink 5.6,2013-10-07 13:00:00,
2013-10-07 08:30:00,62.9,54.1,29.87,North,0,2.0,15.0,73,0.00,,,-99.99,WeatherLink 5.6,2013-10-07 13:30:00,
2013-10-07 09:00:00,65.0,53.4,29.88,NE,45,4.0,18.0,66,0.00,,,-99.99,WeatherLink 5.6,2013-10-07 14:00:00,
2013-10-07 09:30:00,66.4,52.5,29.88,ENE,67,5.0,19.0,61,0.00,,,-99.99,WeatherLink 5.6,2013-10-07 14:30:00,
2013-10-07 10:00:00,67.8,52.5,29.89,NE,45,6.0,15.0,58,0.00,,,-99.99,WeatherLink 5.6,2013-10-07 15:00:00,
2013-10-07 10:30:00,69.6,53.7,29.88,NE,45,5.0,19.0,57,0.00,,,-99.99,WeatherLink 5.6,2013-10-07 15:30:00,
2013-10-07 11:00:00,71.5,52.4,29.88,ENE,67,4.0,14.0,51,0.00,,,-99.99,WeatherLink 5.6,2013-10-07 16:00:00,
2013-10-07 11:30:00,72.8,53.1,29.87,NNE,22,3.0,14.0,50,0.00,,,-99.99,WeatherLink 5.6,2013-10-07 16:30:00,
2013-10-07 12:00:00,73.3,49.4,29.87,NNW,337,4.0,14.0,43,0.00,,,-99.99,WeatherLink 5.6,2013-10-07 17:00:00,
2013-10-07 12:30:00,74.4,51.1,29.86,North,0,2.0,12.0,44,0.00,,,-99.99,WeatherLink 5.6,2013-10-07 17:30:00,
2013-10-07 13:00:00,75.1,47.8,29.85,NW,315,3.0,14.0,38,0.00,,,-99.99,WeatherLink 5.6,2013-10-07 18:00:00,
2013-10-07 13:30:00,75.8,47.7,29.84,NNW,337,3.0,15.0,37,0.00,,,-99.99,WeatherLink 5.6,2013-10-07 18:30:00,
2013-10-07 14:00:00,76.3,46.6,29.83,NW,315,3.0,14.0,35,0.00,,,-99.99,WeatherLink 5.6,2013-10-07 19:00:00,
2013-10-07 14:30:00,77.0,48.0,29.83,North,0,3.0,12.0,36,0.00,,,-99.99,WeatherLink 5.6,2013-10-07 19:30:00,
2013-10-07 15:00:00,77.6,48.5,29.83,NNW,337,3.0,12.0,36,0.00,,,-99.99,WeatherLink 5.6,2013-10-07 20:00:00,
2013-10-07 15:30:00,77.0,49.4,29.82,NW,315,3.0,13.0,38,0.00,,,-99.99,WeatherLink 5.6,2013-10-07 20:30:00,
2013-10-07 16:00:00,77.6,50.7,29.82,WNW,292,2.0,13.0,39,0.00,,,-99.99,WeatherLink 5.6,2013-10-07 21:00:00,
2013-10-07 16:30:00,77.0,52.1,29.81,NW,315,2.0,11.0,42,0.00,,,-99.99,WeatherLink 5.6,2013-10-07 21:30:00,
2013-10-07 17:00:00,76.1,51.3,29.81,North,0,2.0,13.0,42,0.00,,,-99.99,WeatherLink 5.6,2013-10-07 22:00:00,
2013-10-07 17:30:00,74.7,53.1,29.82,NNW,337,1.0,12.0,47,0.00,,,-99.99,WeatherLink 5.6,2013-10-07 22:30:00,
2013-10-07 18:00:00,73.0,52.7,29.83,NW,315,1.0,10.0,49,0.00,,,-99.99,WeatherLink 5.6,2013-10-07 23:00:00,
2013-10-07 18:30:00,70.6,54.1,29.84,North,0,0.0,5.0,56,0.00,,,-99.99,WeatherLink 5.6,2013-10-07 23:30:00,
2013-10-07 19:00:00,68.1,54.1,29.86,NW,315,0.0,4.0,61,0.00,,,-99.99,WeatherLink 5.6,2013-10-08 00:00:00,
2013-10-07 19:30:00,66.4,54.7,29.87,NNW,337,0.0,3.0,66,0.00,,,-99.99,WeatherLink 5.6,2013-10-08 00:30:00,
2013-10-07 20:00:00,65.3,54.1,29.88,NNW,337,0.0,5.0,67,0.00,,,-99.99,WeatherLink 5.6,2013-10-08 01:00:00,
2013-10-07 20:30:00,65.0,53.8,29.89,North,0,0.0,4.0,67,0.00,,,-99.99,WeatherLink 5.6,2013-10-08 01:30:00,
2013-10-07 21:00:00,63.9,53.9,29.91,North,0,0.0,4.0,70,0.00,,,-99.99,WeatherLink 5.6,2013-10-08 02:00:00,
2013-10-07 21:30:00,62.7,53.9,29.92,North,0,0.0,2.0,73,0.00,,,-99.99,WeatherLink 5.6,2013-10-08 02:30:00,
2013-10-07 22:00:00,61.3,54.0,29.92,North,-999,0.0,0.0,77,0.00,,,-99.99,WeatherLink 5.6,2013-10-08 03:00:00,
2013-10-07 22:30:00,60.2,54.0,29.92,North,0,0.0,2.0,80,0.00,,,-99.99,WeatherLink 5.6,2013-10-08 03:30:00,
2013-10-07 23:00:00,60.1,53.9,29.92,North,-999,0.0,0.0,80,0.00,,,-99.99,WeatherLink 5.6,2013-10-08 04:00:00,
2013-10-07 23:30:00,59.8,54.0,29.92,North,0,0.0,2.0,81,0.00,,,-99.99,WeatherLink 5.6,2013-10-08 04:30:00,